createdAt,value
2017-12-02T00:00:49.807Z,0.30
2017-12-02T00:01:53.128Z,0.30
2017-12-02T00:02:55.717Z,0.30
2017-12-02T00:03:58.260Z,0.30
2017-12-02T00:05:00.867Z,0.30
2017-12-02T00:06:04.390Z,0.30
2017-12-02T00:07:06.990Z,0.30
2017-12-02T00:08:10.544Z,0.30
2017-12-02T00:09:13.846Z,0.30
2017-12-02T00:10:16.921Z,0.30
2017-12-02T00:11:19.499Z,0.40
2017-12-02T00:12:22.039Z,0.40
2017-12-02T00:13:25.342Z,0.40
2017-12-02T00:14:27.891Z,0.40
2017-12-02T00:15:31.205Z,0.50
2017-12-02T00:16:33.869Z,0.40
2017-12-02T00:17:36.456Z,0.40
2017-12-02T00:18:39.016Z,0.50
2017-12-02T00:19:41.558Z,0.50
2017-12-02T00:20:44.139Z,0.50
2017-12-02T00:21:46.679Z,0.50
2017-12-02T00:22:49.278Z,0.50
2017-12-02T00:23:51.832Z,0.40
2017-12-02T00:24:55.403Z,0.40
2017-12-02T00:25:58.713Z,0.30
2017-12-02T00:27:01.286Z,0.30
2017-12-02T00:28:03.852Z,0.30
2017-12-02T00:29:06.418Z,0.30
2017-12-02T00:30:08.957Z,0.30
2017-12-02T00:31:12.275Z,0.20
2017-12-02T00:32:14.853Z,0.20
2017-12-02T00:33:17.416Z,0.30
2017-12-02T00:34:19.958Z,0.30
2017-12-02T00:35:22.498Z,0.20
2017-12-02T00:36:25.851Z,0.30
2017-12-02T00:37:28.408Z,0.30
2017-12-02T00:38:30.948Z,0.30
2017-12-02T00:39:34.643Z,0.30
2017-12-02T00:40:37.208Z,0.30
2017-12-02T00:41:39.769Z,0.30
2017-12-02T00:42:42.319Z,0.30
2017-12-02T00:43:46.328Z,0.40
2017-12-02T00:44:49.634Z,0.40
2017-12-02T00:45:52.172Z,0.30
2017-12-02T00:46:55.529Z,0.40
2017-12-02T00:47:58.878Z,0.30
2017-12-02T00:49:02.252Z,0.30
2017-12-02T00:50:04.832Z,0.30
2017-12-02T00:51:07.395Z,0.20
2017-12-02T00:52:11.001Z,0.20
2017-12-02T00:53:13.559Z,0.20
2017-12-02T00:54:17.116Z,0.20
2017-12-02T00:55:20.418Z,0.20
2017-12-02T00:56:23.173Z,0.20
2017-12-02T00:57:25.757Z,0.10
2017-12-02T00:58:29.360Z,0.20
2017-12-02T00:59:31.935Z,0.20
2017-12-02T01:00:34.461Z,0.20
2017-12-02T01:01:37.670Z,0.20
2017-12-02T01:02:40.242Z,0.20
2017-12-02T01:03:42.813Z,0.20
2017-12-02T01:04:45.359Z,0.30
2017-12-02T01:05:48.648Z,0.30
2017-12-02T01:06:51.196Z,0.40
2017-12-02T01:07:53.787Z,0.40
2017-12-02T01:08:56.328Z,0.40
2017-12-02T01:09:59.653Z,0.50
2017-12-02T01:11:02.198Z,0.50
2017-12-02T01:12:04.747Z,0.40
2017-12-02T01:13:07.329Z,0.40
2017-12-02T01:14:09.867Z,0.40
2017-12-02T01:15:13.393Z,0.40
2017-12-02T01:16:16.061Z,0.40
2017-12-02T01:17:19.435Z,0.40
2017-12-02T01:18:22.007Z,0.40
2017-12-02T01:19:24.559Z,0.50
2017-12-02T01:20:27.102Z,0.50
2017-12-02T01:21:29.707Z,0.40
2017-12-02T01:22:32.244Z,0.40
2017-12-02T01:23:35.614Z,0.50
2017-12-02T01:24:38.141Z,0.50
2017-12-02T01:25:40.991Z,0.50
2017-12-02T01:26:43.524Z,0.50
2017-12-02T01:27:47.167Z,0.50
2017-12-02T01:28:49.721Z,0.50
2017-12-02T01:29:52.267Z,0.50
2017-12-02T01:30:55.578Z,0.50
2017-12-02T01:31:58.118Z,0.50
2017-12-02T01:33:01.434Z,0.40
2017-12-02T01:34:03.982Z,0.40
2017-12-02T01:35:06.537Z,0.40
2017-12-02T01:36:09.882Z,0.40
2017-12-02T01:37:12.435Z,0.40
2017-12-02T01:38:14.971Z,0.40
2017-12-02T01:39:17.502Z,0.40
2017-12-02T01:40:20.049Z,0.40
2017-12-02T01:41:23.409Z,0.30
2017-12-02T01:42:25.985Z,0.30
2017-12-02T01:43:29.813Z,0.30
2017-12-02T01:44:32.378Z,0.30
2017-12-02T01:45:34.925Z,0.30
2017-12-02T01:46:37.910Z,0.30
2017-12-02T01:47:40.970Z,0.30
2017-12-02T01:48:44.520Z,0.40
2017-12-02T01:49:47.825Z,0.40
2017-12-02T01:50:50.558Z,0.40
2017-12-02T01:51:53.875Z,0.30
2017-12-02T01:52:56.462Z,0.30
2017-12-02T01:53:59.011Z,0.30
2017-12-02T01:55:01.557Z,0.30
2017-12-02T01:56:04.151Z,0.30
2017-12-02T01:57:06.689Z,0.30
2017-12-02T01:58:10.103Z,0.20
2017-12-02T01:59:12.628Z,0.20
2017-12-02T02:00:15.947Z,0.30
2017-12-02T02:01:18.504Z,0.30
2017-12-02T02:02:21.804Z,0.30
2017-12-02T02:03:24.387Z,0.30
2017-12-02T02:04:26.921Z,0.30
2017-12-02T02:05:29.508Z,0.30
2017-12-02T02:06:32.063Z,0.30
2017-12-02T02:07:34.639Z,0.30
2017-12-02T02:08:37.535Z,0.30
2017-12-02T02:09:40.080Z,0.30
2017-12-02T02:10:42.620Z,0.30
2017-12-02T02:11:45.928Z,0.30
2017-12-02T02:12:48.468Z,0.20
2017-12-02T02:13:51.782Z,0.30
2017-12-02T02:14:54.303Z,0.30
2017-12-02T02:15:57.732Z,0.20
2017-12-02T02:17:00.276Z,0.20
2017-12-02T02:18:03.567Z,0.30
2017-12-02T02:19:06.896Z,0.30
2017-12-02T02:20:09.421Z,0.20
2017-12-02T02:21:11.995Z,0.30
2017-12-02T02:22:14.542Z,0.30
2017-12-02T02:23:18.710Z,0.40
2017-12-02T02:24:21.448Z,0.30
2017-12-02T02:25:23.994Z,0.40
2017-12-02T02:26:26.680Z,0.40
2017-12-02T02:27:29.238Z,0.30
2017-12-02T02:28:31.796Z,0.30
2017-12-02T02:29:34.353Z,0.20
2017-12-02T02:30:38.726Z,0.20
2017-12-02T02:31:41.252Z,0.20
2017-12-02T02:32:43.843Z,0.30
2017-12-02T02:33:46.756Z,0.30
2017-12-02T02:34:49.315Z,0.30
2017-12-02T02:35:51.846Z,0.40
2017-12-02T02:36:54.391Z,0.40
2017-12-02T02:37:56.942Z,0.30
2017-12-02T02:39:00.433Z,0.30
2017-12-02T02:40:02.982Z,0.30
2017-12-02T02:41:06.312Z,0.40
2017-12-02T02:42:08.864Z,0.30
2017-12-02T02:43:11.413Z,0.40
2017-12-02T02:57:18.984Z,0.30
2017-12-02T02:58:22.287Z,0.60
2017-12-02T02:59:24.836Z,0.60
2017-12-02T03:00:28.125Z,0.60
2017-12-02T03:01:30.671Z,0.50
2017-12-02T03:02:34.288Z,0.60
2017-12-02T03:03:36.821Z,0.60
2017-12-02T03:04:40.142Z,0.60
2017-12-02T03:05:42.689Z,0.60
2017-12-02T03:06:46.099Z,0.60
2017-12-02T03:07:48.630Z,0.60
2017-12-02T03:08:51.175Z,0.60
2017-12-02T03:09:54.142Z,0.60
2017-12-02T03:10:56.677Z,0.50
2017-12-02T03:11:59.208Z,0.50
2017-12-02T03:13:03.629Z,0.50
2017-12-02T03:14:06.969Z,0.60
2017-12-02T03:15:09.504Z,0.60
2017-12-02T03:16:12.071Z,0.60
2017-12-02T03:17:14.599Z,0.60
2017-12-02T03:18:17.134Z,0.60
2017-12-02T03:19:19.705Z,0.60
2017-12-02T03:20:22.236Z,0.60
2017-12-02T03:21:24.769Z,0.50
2017-12-02T03:22:28.088Z,0.50
2017-12-02T03:23:30.623Z,0.50
2017-12-02T03:24:34.776Z,0.50
2017-12-02T03:25:37.327Z,0.50
2017-12-02T03:26:39.888Z,0.60
2017-12-02T03:27:42.433Z,0.60
2017-12-02T03:28:45.773Z,0.50
2017-12-02T03:29:48.318Z,0.50
2017-12-02T03:30:50.861Z,0.50
2017-12-02T03:31:53.401Z,0.50
2017-12-02T03:32:55.939Z,0.50
2017-12-02T03:33:58.476Z,0.50
2017-12-02T03:35:01.014Z,0.50
2017-12-02T03:36:05.431Z,0.60
2017-12-02T03:37:08.792Z,0.60
2017-12-02T03:38:12.096Z,0.60
2017-12-02T03:39:15.393Z,0.60
2017-12-02T03:40:17.966Z,0.60
2017-12-02T03:41:20.517Z,0.50
2017-12-02T03:42:23.821Z,0.50
2017-12-02T03:43:26.365Z,0.50
2017-12-02T03:44:29.662Z,0.50
2017-12-02T03:45:32.222Z,0.50
2017-12-02T03:46:35.524Z,0.50
2017-12-02T03:47:38.051Z,0.50
2017-12-02T03:48:41.363Z,0.60
2017-12-02T03:49:43.917Z,0.50
2017-12-02T03:50:46.498Z,0.50
2017-12-02T03:51:49.012Z,0.50
2017-12-02T03:52:51.616Z,0.40
2017-12-02T03:53:54.924Z,0.50
2017-12-02T03:54:57.469Z,0.50
2017-12-02T03:56:00.774Z,0.60
2017-12-02T03:57:03.452Z,0.60
2017-12-02T03:58:06.119Z,0.50
2017-12-02T03:59:08.643Z,0.50
2017-12-02T04:13:11.262Z,0.60
2017-12-02T04:14:13.845Z,0.40
2017-12-02T04:15:17.147Z,0.30
2017-12-02T04:16:20.452Z,0.30
2017-12-02T04:17:24.377Z,0.30
2017-12-02T04:18:26.959Z,0.30
2017-12-02T04:19:29.495Z,0.30
2017-12-02T04:20:32.056Z,0.30
2017-12-02T04:21:35.115Z,0.30
2017-12-02T04:22:39.448Z,0.20
2017-12-02T04:23:41.996Z,0.20
2017-12-02T04:24:45.332Z,0.30
2017-12-02T04:25:47.865Z,0.30
2017-12-02T04:26:50.403Z,0.30
2017-12-02T04:27:53.700Z,0.40
2017-12-02T04:28:57.008Z,0.40
2017-12-02T04:29:59.548Z,0.40
2017-12-02T04:31:02.854Z,0.40
2017-12-02T04:32:05.404Z,0.40
2017-12-02T04:33:07.990Z,0.40
2017-12-02T04:34:10.563Z,0.40
2017-12-02T04:35:13.122Z,0.40
2017-12-02T04:36:15.674Z,0.40
2017-12-02T04:37:18.339Z,0.40
2017-12-02T04:38:21.638Z,0.50
2017-12-02T04:39:24.196Z,0.50
2017-12-02T04:40:26.727Z,0.50
2017-12-02T04:41:29.279Z,0.50
2017-12-02T04:42:31.802Z,0.50
2017-12-02T04:43:34.374Z,0.50
2017-12-02T04:44:36.924Z,0.50
2017-12-02T04:45:40.281Z,0.60
2017-12-02T04:46:42.820Z,0.60
2017-12-02T04:47:45.381Z,0.70
2017-12-02T04:48:47.908Z,0.70
2017-12-02T04:49:51.230Z,0.70
2017-12-02T04:50:53.796Z,0.70
2017-12-02T04:51:56.369Z,0.70
2017-12-02T04:52:58.943Z,0.70
2017-12-02T04:54:01.490Z,0.60
2017-12-02T04:55:04.056Z,0.60
2017-12-02T04:56:06.630Z,0.70
2017-12-02T04:57:09.157Z,0.60
2017-12-02T04:58:12.975Z,0.60
2017-12-02T04:59:15.558Z,0.60
2017-12-02T05:00:18.107Z,0.60
2017-12-02T05:01:20.666Z,0.50
2017-12-02T05:02:23.229Z,0.50
2017-12-02T05:03:25.825Z,0.50
2017-12-02T05:04:28.371Z,0.50
2017-12-02T05:05:30.907Z,0.50
2017-12-02T05:06:33.456Z,0.60
2017-12-02T05:07:36.010Z,0.50
2017-12-02T05:08:38.557Z,0.40
2017-12-02T05:09:41.102Z,0.40
2017-12-02T05:10:43.659Z,0.40
2017-12-02T05:11:46.972Z,0.30
2017-12-02T05:12:49.515Z,0.30
2017-12-02T05:13:52.853Z,0.30
2017-12-02T05:14:55.371Z,0.40
2017-12-02T05:15:57.898Z,0.40
2017-12-02T05:17:00.444Z,0.40
2017-12-02T05:18:02.983Z,0.40
2017-12-02T05:19:05.524Z,0.40
2017-12-02T05:20:08.112Z,0.40
2017-12-02T05:21:10.658Z,0.40
2017-12-02T05:22:13.209Z,0.30
2017-12-02T05:23:17.528Z,0.30
2017-12-02T05:24:20.832Z,0.20
2017-12-02T05:25:23.398Z,0.20
2017-12-02T05:26:25.929Z,0.20
2017-12-02T05:27:28.488Z,0.30
2017-12-02T05:28:31.031Z,0.30
2017-12-02T05:29:35.596Z,0.30
2017-12-02T05:30:38.146Z,0.20
2017-12-02T05:31:41.488Z,0.10
2017-12-02T05:32:44.057Z,0.10
2017-12-02T05:33:46.783Z,0.20
2017-12-02T05:34:50.116Z,0.20
2017-12-02T05:35:52.697Z,0.20
2017-12-02T05:36:55.235Z,0.30
2017-12-02T05:37:57.769Z,0.30
2017-12-02T05:39:00.300Z,0.30
2017-12-02T05:40:03.108Z,0.40
2017-12-02T05:41:05.688Z,0.40
2017-12-02T05:42:08.304Z,0.40
2017-12-02T05:43:10.862Z,0.40
2017-12-02T05:44:13.404Z,0.40
2017-12-02T05:45:15.959Z,0.50
2017-12-02T05:46:18.522Z,0.50
2017-12-02T05:47:21.060Z,0.50
2017-12-02T05:48:25.411Z,0.50
2017-12-02T05:49:27.945Z,0.50
2017-12-02T05:50:31.285Z,0.40
2017-12-02T05:51:33.819Z,0.40
2017-12-02T05:52:36.348Z,0.50
2017-12-02T05:53:38.888Z,0.40
2017-12-02T05:54:41.438Z,0.40
2017-12-02T05:55:43.979Z,0.40
2017-12-02T05:56:47.051Z,0.40
2017-12-02T05:57:49.580Z,0.40
2017-12-02T05:58:53.091Z,0.50
2017-12-02T05:59:56.409Z,0.50
2017-12-02T06:00:58.963Z,0.40
2017-12-02T06:02:01.505Z,0.40
2017-12-02T06:03:04.904Z,0.50
2017-12-02T06:04:08.196Z,0.50
2017-12-02T06:05:10.761Z,0.50
2017-12-02T06:06:13.329Z,0.50
2017-12-02T06:07:15.992Z,0.50
2017-12-02T06:08:19.333Z,0.50
2017-12-02T06:09:21.956Z,0.50
2017-12-02T06:52:40.605Z,0.40
2017-12-02T06:53:43.139Z,0.90
2017-12-02T06:54:45.700Z,0.90
2017-12-02T06:55:48.996Z,0.90
2017-12-02T06:56:51.752Z,0.90
2017-12-02T06:57:55.066Z,0.90
2017-12-02T06:58:57.597Z,0.90
2017-12-02T07:00:05.090Z,0.90
2017-12-02T07:01:08.422Z,0.90
2017-12-02T07:02:11.111Z,0.90
2017-12-02T07:03:17.213Z,0.90
2017-12-02T07:04:20.648Z,0.90
2017-12-02T07:05:24.438Z,0.90
2017-12-02T07:06:28.179Z,0.90
2017-12-02T07:07:32.281Z,0.90
2017-12-02T07:08:34.809Z,0.90
2017-12-02T07:09:37.754Z,0.90
2017-12-02T07:10:40.303Z,1.00
2017-12-02T07:11:43.879Z,0.90
2017-12-02T07:12:48.422Z,1.00
2017-12-02T07:13:50.960Z,1.00
2017-12-02T07:14:58.921Z,1.00
2017-12-02T07:16:06.667Z,1.10
2017-12-02T07:17:10.134Z,1.10
2017-12-02T07:18:13.734Z,1.10
2017-12-02T07:19:20.624Z,1.10
2017-12-02T07:20:25.653Z,1.10
2017-12-02T07:21:31.108Z,1.10
2017-12-02T07:22:38.150Z,1.10
2017-12-02T07:23:43.687Z,1.10
2017-12-02T07:24:48.586Z,1.20
2017-12-02T07:25:52.184Z,1.20
2017-12-02T07:26:55.373Z,1.00
2017-12-02T07:27:57.914Z,1.00
2017-12-02T07:29:01.233Z,0.90
2017-12-02T07:30:04.637Z,0.90
2017-12-02T07:31:09.973Z,0.90
2017-12-02T07:32:14.135Z,0.90
2017-12-02T07:33:17.831Z,1.00
2017-12-02T07:34:22.456Z,1.00
2017-12-02T07:35:25.812Z,1.00
2017-12-02T07:36:33.156Z,1.00
2017-12-02T07:37:37.682Z,1.00
2017-12-02T07:38:40.283Z,1.10
2017-12-02T07:39:42.918Z,1.00
2017-12-02T07:40:46.328Z,1.10
2017-12-02T07:41:48.884Z,1.10
2017-12-02T07:42:52.212Z,1.20
2017-12-02T07:43:54.964Z,1.20
2017-12-02T07:44:57.544Z,1.20
2017-12-02T07:46:00.076Z,1.20
2017-12-02T07:47:03.382Z,1.00
2017-12-02T07:48:05.932Z,1.10
2017-12-02T07:49:09.269Z,0.90
2017-12-02T07:50:11.952Z,0.90
2017-12-02T07:51:14.998Z,0.90
2017-12-02T07:52:17.555Z,0.90
2017-12-02T07:53:20.087Z,0.80
2017-12-02T07:54:23.380Z,0.80
2017-12-02T07:55:26.766Z,0.90
2017-12-02T07:56:30.112Z,0.90
2017-12-02T07:57:32.647Z,0.90
2017-12-02T07:58:35.204Z,1.00
2017-12-02T07:59:37.736Z,1.00
2017-12-02T08:00:42.122Z,1.00
2017-12-02T08:01:45.440Z,1.10
2017-12-02T08:02:48.928Z,1.20
2017-12-02T08:03:52.251Z,1.20
2017-12-02T08:04:55.838Z,1.20
2017-12-02T08:05:58.385Z,1.20
2017-12-02T08:07:00.933Z,1.10
2017-12-02T08:08:03.523Z,1.20
2017-12-02T08:09:06.067Z,1.20
2017-12-02T08:10:09.415Z,1.30
2017-12-02T08:11:12.036Z,1.30
2017-12-02T08:12:14.589Z,1.10
2017-12-02T08:13:17.896Z,1.00
2017-12-02T08:14:20.422Z,1.00
2017-12-02T08:15:22.998Z,1.10
2017-12-02T08:16:27.014Z,0.90
2017-12-02T08:17:30.314Z,0.90
2017-12-02T08:18:33.865Z,0.90
2017-12-02T08:19:37.190Z,1.00
2017-12-02T08:20:40.032Z,1.00
2017-12-02T08:21:44.096Z,1.10
2017-12-02T08:22:46.680Z,1.10
2017-12-02T08:23:49.237Z,1.10
2017-12-02T08:24:51.763Z,1.10
2017-12-02T08:25:55.238Z,1.10
2017-12-02T08:26:58.552Z,1.10
2017-12-02T08:28:01.138Z,1.10
2017-12-02T08:29:03.721Z,1.10
2017-12-02T08:30:08.409Z,1.00
2017-12-02T08:31:10.958Z,0.90
2017-12-02T08:32:13.646Z,0.90
2017-12-02T08:33:16.178Z,0.90
2017-12-02T08:34:19.521Z,0.90
2017-12-02T08:35:22.060Z,0.90
2017-12-02T08:36:24.638Z,0.90
2017-12-02T08:37:27.186Z,0.90
2017-12-02T08:38:29.740Z,1.00
2017-12-02T08:39:32.336Z,1.00
2017-12-02T08:40:35.905Z,1.00
2017-12-02T08:41:39.219Z,1.10
2017-12-02T08:42:41.781Z,1.10
2017-12-02T08:43:44.329Z,1.10
2017-12-02T08:44:47.306Z,1.20
2017-12-02T08:45:49.840Z,1.20
2017-12-02T08:46:53.125Z,1.30
2017-12-02T08:47:56.514Z,1.20
2017-12-02T08:49:00.861Z,1.30
2017-12-02T08:50:03.530Z,1.30
2017-12-02T08:51:06.064Z,1.20
2017-12-02T08:52:08.855Z,1.00
2017-12-02T08:53:11.542Z,1.10
2017-12-02T08:54:14.253Z,1.10
2017-12-02T08:55:17.586Z,1.20
2017-12-02T08:56:20.127Z,1.20
2017-12-02T08:57:22.737Z,1.20
2017-12-02T08:58:25.265Z,1.10
2017-12-02T08:59:28.767Z,1.10
2017-12-02T09:00:31.304Z,1.10
2017-12-02T09:01:34.646Z,1.20
2017-12-02T09:02:37.227Z,1.20
2017-12-02T09:03:39.814Z,1.10
2017-12-02T09:04:42.352Z,1.10
2017-12-02T09:05:44.894Z,1.20
2017-12-02T09:06:47.472Z,1.20
2017-12-02T09:07:51.050Z,1.10
2017-12-02T09:08:53.603Z,1.10
2017-12-02T09:09:56.283Z,1.10
2017-12-02T09:10:58.860Z,1.00
2017-12-02T09:12:01.404Z,1.10
2017-12-02T09:13:03.940Z,1.00
2017-12-02T09:14:06.481Z,1.00
2017-12-02T09:15:09.049Z,1.00
2017-12-02T09:16:11.661Z,1.00
2017-12-02T09:17:14.974Z,0.90
2017-12-02T09:18:18.053Z,0.90
2017-12-02T09:19:20.730Z,0.80
2017-12-02T09:20:23.275Z,0.80
2017-12-02T09:21:25.849Z,0.80
2017-12-02T09:22:30.146Z,0.90
2017-12-02T09:23:33.430Z,1.00
2017-12-02T09:24:35.988Z,1.00
2017-12-02T09:25:39.285Z,1.10
2017-12-02T09:26:42.900Z,1.10
2017-12-02T09:27:45.557Z,1.20
2017-12-02T09:28:48.271Z,1.20
2017-12-02T09:29:51.676Z,1.10
2017-12-02T09:30:56.021Z,1.10
2017-12-02T09:31:58.587Z,1.10
2017-12-02T09:33:01.216Z,1.20
2017-12-02T09:34:04.539Z,1.10
2017-12-02T09:35:07.103Z,1.10
2017-12-02T09:36:09.676Z,1.20
2017-12-02T09:37:12.238Z,1.20
2017-12-02T09:38:14.921Z,1.30
2017-12-02T09:39:17.471Z,1.20
2017-12-02T09:40:20.054Z,1.10
2017-12-02T09:41:23.019Z,1.10
2017-12-02T09:42:25.584Z,1.10
2017-12-02T09:43:29.489Z,1.20
2017-12-02T09:44:32.046Z,1.20
2017-12-02T09:45:34.634Z,1.20
2017-12-02T09:46:38.102Z,1.20
2017-12-02T09:47:40.641Z,1.20
2017-12-02T09:48:43.952Z,1.10
2017-12-02T09:49:46.566Z,1.10
2017-12-02T09:50:49.128Z,1.00
2017-12-02T09:51:51.672Z,1.00
2017-12-02T09:52:54.321Z,0.90
2017-12-02T09:53:56.993Z,0.90
2017-12-02T09:54:59.570Z,1.00
2017-12-02T09:56:02.159Z,1.00
2017-12-02T09:57:04.697Z,1.10
2017-12-02T09:58:08.386Z,1.10
2017-12-02T10:09:01.206Z,1.20
2017-12-02T10:10:03.778Z,1.40
2017-12-02T10:11:06.331Z,1.40
2017-12-02T10:12:10.949Z,1.40
2017-12-02T10:13:13.512Z,1.40
2017-12-02T10:14:17.364Z,1.50
2017-12-02T10:15:19.933Z,1.50
2017-12-02T10:16:22.608Z,1.60
2017-12-02T10:17:25.985Z,1.70
2017-12-02T10:18:28.538Z,1.60
2017-12-02T10:19:31.977Z,1.60
2017-12-02T10:20:34.658Z,1.50
2017-12-02T10:21:37.209Z,1.60
2017-12-02T10:22:40.700Z,1.60
2017-12-02T10:23:43.242Z,1.50
2017-12-02T10:24:46.586Z,1.60
2017-12-02T10:25:49.148Z,1.50
2017-12-02T10:26:52.702Z,1.50
2017-12-02T10:27:55.257Z,1.60
2017-12-02T10:28:57.824Z,1.70
2017-12-02T10:30:01.161Z,1.70
2017-12-02T10:31:03.761Z,1.70
2017-12-02T10:32:06.327Z,1.70
2017-12-02T10:33:09.671Z,1.80
2017-12-02T10:34:12.404Z,1.80
2017-12-02T10:35:15.814Z,1.70
2017-12-02T10:36:18.477Z,1.70
2017-12-02T10:37:21.046Z,1.60
2017-12-02T10:38:23.693Z,1.70
2017-12-02T10:39:27.017Z,1.60
2017-12-02T10:40:29.563Z,1.60
2017-12-02T10:41:32.131Z,1.70
2017-12-02T10:42:34.709Z,1.80
2017-12-02T10:43:38.516Z,1.70
2017-12-02T10:44:41.062Z,1.80
2017-12-02T10:45:43.635Z,1.80
2017-12-02T10:46:46.207Z,1.80
2017-12-02T10:47:48.775Z,1.80
2017-12-02T10:48:51.329Z,1.80
2017-12-02T10:49:53.864Z,1.80
2017-12-02T10:50:57.180Z,1.80
2017-12-02T10:51:59.719Z,1.80
2017-12-02T10:53:03.132Z,1.70
2017-12-02T10:54:09.783Z,1.70
2017-12-02T10:55:12.334Z,1.80
2017-12-02T10:56:15.747Z,1.80
2017-12-02T10:57:18.310Z,1.70
2017-12-02T10:58:20.939Z,1.80
2017-12-02T10:59:25.004Z,1.80
2017-12-02T11:00:29.421Z,1.80
2017-12-02T11:01:32.003Z,1.80
2017-12-02T11:02:34.662Z,1.80
2017-12-02T11:03:38.140Z,1.80
2017-12-02T11:04:41.516Z,1.90
2017-12-02T11:05:44.076Z,1.90
2017-12-02T11:06:47.064Z,1.90
2017-12-02T11:07:49.721Z,1.90
2017-12-02T11:08:53.092Z,1.90
2017-12-02T11:09:55.624Z,1.90
2017-12-02T11:10:58.956Z,2.00
2017-12-02T11:12:01.529Z,2.00
2017-12-02T11:13:05.100Z,2.00
2017-12-02T11:14:07.685Z,2.10
2017-12-02T11:15:10.244Z,2.00
2017-12-02T11:16:13.148Z,1.90
2017-12-02T11:17:15.682Z,1.90
2017-12-02T11:18:18.278Z,1.90
2017-12-02T11:19:20.840Z,1.80
2017-12-02T11:20:23.389Z,1.80
2017-12-02T11:21:25.968Z,1.70
2017-12-02T11:22:28.524Z,1.70
2017-12-02T11:23:31.101Z,1.60
2017-12-02T11:24:34.860Z,1.40
2017-12-02T11:25:39.215Z,1.50
2017-12-02T11:26:41.872Z,1.50
2017-12-02T11:27:45.453Z,1.50
2017-12-02T11:28:48.139Z,1.50
2017-12-02T11:29:50.761Z,1.60
2017-12-02T11:30:54.088Z,1.70
2017-12-02T11:31:57.675Z,1.70
2017-12-02T11:33:00.221Z,1.80
2017-12-02T11:34:02.822Z,1.80
2017-12-02T11:35:05.739Z,1.80
2017-12-02T11:36:09.629Z,1.70
2017-12-02T11:37:12.254Z,1.70
2017-12-02T11:38:16.055Z,1.60
2017-12-02T11:39:18.911Z,1.60
2017-12-02T11:40:21.793Z,1.50
2017-12-02T11:41:25.047Z,1.50
2017-12-02T11:42:27.697Z,1.60
2017-12-02T11:43:31.117Z,1.50
2017-12-02T11:44:33.904Z,1.50
2017-12-02T11:45:36.513Z,1.50
2017-12-02T11:46:41.793Z,1.50
2017-12-02T11:47:44.426Z,1.50
2017-12-02T11:48:48.166Z,1.40
2017-12-02T11:49:50.720Z,1.40
2017-12-02T11:50:54.210Z,1.40
2017-12-02T11:51:56.788Z,1.40
2017-12-02T11:52:59.355Z,1.20
2017-12-02T11:54:01.966Z,1.20
2017-12-02T11:55:04.581Z,1.20
2017-12-02T11:56:07.120Z,1.20
2017-12-02T11:57:11.501Z,1.40
2017-12-02T11:58:14.200Z,1.40
2017-12-02T11:59:17.493Z,1.20
2017-12-02T12:00:20.823Z,1.20
2017-12-02T12:01:24.376Z,1.20
2017-12-02T12:02:26.982Z,1.20
2017-12-02T12:03:29.577Z,1.30
2017-12-02T12:04:32.132Z,1.30
2017-12-02T12:05:34.674Z,1.30
2017-12-02T12:06:37.253Z,1.20
2017-12-02T12:07:39.804Z,1.20
2017-12-02T12:08:42.368Z,1.10
2017-12-02T12:09:47.195Z,1.20
2017-12-02T12:10:49.740Z,1.20
2017-12-02T12:11:52.316Z,1.10
2017-12-02T12:12:54.931Z,1.20
2017-12-02T12:13:57.491Z,1.30
2017-12-02T12:15:00.020Z,1.30
2017-12-02T12:16:09.590Z,1.40
2017-12-02T12:17:12.144Z,1.50
2017-12-02T12:18:15.862Z,1.50
2017-12-02T12:19:19.210Z,1.50
2017-12-02T12:20:21.815Z,1.50
2017-12-02T12:21:24.534Z,1.50
2017-12-02T12:22:27.193Z,1.50
2017-12-02T12:23:29.853Z,1.40
2017-12-02T12:24:32.543Z,1.50
2017-12-02T12:25:35.074Z,1.40
2017-12-02T12:26:39.401Z,1.30
2017-12-02T12:27:41.951Z,1.40
2017-12-02T12:28:45.389Z,1.20
2017-12-02T12:29:48.441Z,1.10
2017-12-02T12:30:50.989Z,1.10
2017-12-02T12:31:54.288Z,1.10
2017-12-02T12:32:56.815Z,1.10
2017-12-02T12:33:59.362Z,1.20
2017-12-02T12:35:02.545Z,1.20
2017-12-02T12:36:05.095Z,1.30
2017-12-02T12:37:07.637Z,1.30
2017-12-02T12:38:10.286Z,1.40
2017-12-02T12:39:14.590Z,1.50
2017-12-02T12:40:17.929Z,1.60
2017-12-02T12:41:20.492Z,1.60
2017-12-02T12:42:23.035Z,1.60
2017-12-02T12:43:25.576Z,1.60
2017-12-02T12:44:28.878Z,1.70
2017-12-02T12:45:32.576Z,1.70
2017-12-02T12:46:35.093Z,1.60
2017-12-02T12:47:40.176Z,1.60
2017-12-02T12:48:42.836Z,1.50
2017-12-02T12:49:45.432Z,1.60
2017-12-02T12:50:48.010Z,1.60
2017-12-02T12:51:50.551Z,1.60
2017-12-02T12:52:53.112Z,1.60
2017-12-02T12:53:55.673Z,1.60
2017-12-02T12:54:59.549Z,1.70
2017-12-02T12:56:02.172Z,1.70
2017-12-02T12:57:04.915Z,1.70
2017-12-02T12:58:07.469Z,1.70
2017-12-02T12:59:10.019Z,1.80
2017-12-02T13:00:14.342Z,1.80
2017-12-02T13:01:16.950Z,1.70
2017-12-02T13:02:19.566Z,1.80
2017-12-02T13:03:22.886Z,1.70
2017-12-02T13:04:26.457Z,1.70
2017-12-02T13:05:29.016Z,1.70
2017-12-02T13:06:31.597Z,1.60
2017-12-02T13:07:34.148Z,1.50
2017-12-02T13:08:36.810Z,1.40
2017-12-02T13:09:39.359Z,1.30
2017-12-02T13:10:43.991Z,1.40
2017-12-02T13:11:47.318Z,1.40
2017-12-02T13:12:51.112Z,1.40
2017-12-02T13:13:53.678Z,1.30
2017-12-02T13:14:56.220Z,1.20
2017-12-02T13:15:58.775Z,1.30
2017-12-02T13:17:02.077Z,1.30
2017-12-02T13:18:04.621Z,1.30
2017-12-02T13:19:07.956Z,1.30
2017-12-02T13:20:10.496Z,1.30
2017-12-02T13:21:13.384Z,1.30
2017-12-02T13:22:16.059Z,1.40
2017-12-02T13:23:19.419Z,1.50
2017-12-02T13:24:22.100Z,1.50
2017-12-02T13:25:24.636Z,1.60
2017-12-02T13:26:27.966Z,1.60
2017-12-02T13:27:31.778Z,1.60
2017-12-02T13:28:34.347Z,1.40
2017-12-02T13:29:37.987Z,1.50
2017-12-02T13:30:40.559Z,1.50
2017-12-02T13:31:45.094Z,1.50
2017-12-02T13:32:47.680Z,1.50
2017-12-02T13:33:50.202Z,1.50
2017-12-02T13:34:52.842Z,1.50
2017-12-02T13:35:55.394Z,1.50
2017-12-02T13:36:57.937Z,1.50
2017-12-02T13:38:01.543Z,1.50
2017-12-02T13:39:04.078Z,1.40
2017-12-02T13:40:07.709Z,1.40
2017-12-02T13:41:10.263Z,1.40
2017-12-02T13:42:12.812Z,1.50
2017-12-02T13:43:15.381Z,1.40
2017-12-02T13:44:18.009Z,1.50
2017-12-02T13:45:21.333Z,1.50
2017-12-02T13:46:23.886Z,1.50
2017-12-02T13:47:27.193Z,1.50
2017-12-02T13:48:30.734Z,1.50
2017-12-02T13:49:34.155Z,1.50
2017-12-02T13:50:36.708Z,1.40
2017-12-02T13:51:39.293Z,1.50
2017-12-02T13:52:42.894Z,1.50
2017-12-02T13:53:45.432Z,1.40
2017-12-02T13:54:48.019Z,1.40
2017-12-02T13:55:50.541Z,1.40
2017-12-02T13:56:53.959Z,1.40
2017-12-02T13:57:56.569Z,1.40
2017-12-02T13:59:00.078Z,1.40
2017-12-02T14:00:03.408Z,1.40
2017-12-02T14:01:05.953Z,1.40
2017-12-02T14:02:09.268Z,1.40
2017-12-02T14:03:11.814Z,1.40
2017-12-02T14:04:14.346Z,1.30
2017-12-02T14:05:16.884Z,1.30
2017-12-02T14:06:19.447Z,1.30
2017-12-02T14:07:22.062Z,1.40
2017-12-02T14:08:24.647Z,1.30
2017-12-02T14:09:27.261Z,1.40
2017-12-02T14:10:29.910Z,1.40
2017-12-02T14:11:33.488Z,1.30
2017-12-02T14:12:36.047Z,1.20
2017-12-02T14:13:39.361Z,1.20
2017-12-02T14:14:42.417Z,1.20
2017-12-02T14:15:45.735Z,1.20
2017-12-02T14:16:48.303Z,1.30
2017-12-02T14:17:50.876Z,1.30
2017-12-02T14:18:53.508Z,1.30
2017-12-02T14:19:56.818Z,1.40
2017-12-02T14:20:59.363Z,1.40
2017-12-02T14:22:02.905Z,1.40
2017-12-02T14:23:05.498Z,1.40
2017-12-02T14:24:08.074Z,1.40
2017-12-02T14:25:11.426Z,1.40
2017-12-02T14:26:13.965Z,1.40
2017-12-02T14:27:16.530Z,1.40
2017-12-02T14:28:19.259Z,1.50
2017-12-02T14:29:22.585Z,1.40
2017-12-02T14:30:25.126Z,1.40
2017-12-02T14:31:27.690Z,1.40
2017-12-02T14:32:31.083Z,1.40
2017-12-02T14:33:33.627Z,1.30
2017-12-02T14:34:36.998Z,1.30
2017-12-02T14:35:39.581Z,1.30
2017-12-02T14:36:43.012Z,1.30
2017-12-02T14:37:45.582Z,1.30
2017-12-02T14:38:48.573Z,1.30
2017-12-02T14:39:51.120Z,1.30
2017-12-02T14:40:53.683Z,1.30
2017-12-02T14:41:56.230Z,1.10
2017-12-02T14:42:59.735Z,1.10
2017-12-02T14:44:02.296Z,1.20
2017-12-02T14:45:05.894Z,1.20
2017-12-02T14:46:08.477Z,1.20
2017-12-02T14:47:12.151Z,1.20
2017-12-02T14:48:14.706Z,1.20
2017-12-02T14:49:17.296Z,1.20
2017-12-02T14:50:19.879Z,1.20
2017-12-02T14:51:22.428Z,1.10
2017-12-02T14:52:24.964Z,1.20
2017-12-02T14:53:28.276Z,1.00
2017-12-02T14:54:30.843Z,1.00
2017-12-02T14:55:33.712Z,1.10
2017-12-02T14:56:36.258Z,1.10
2017-12-02T14:57:38.832Z,1.10
2017-12-02T14:58:41.412Z,1.10
2017-12-02T14:59:43.965Z,1.10
2017-12-02T15:00:46.563Z,1.10
2017-12-02T15:01:49.093Z,1.10
2017-12-02T15:02:52.458Z,1.00
2017-12-02T15:03:55.025Z,0.90
2017-12-02T15:04:58.365Z,1.00
2017-12-02T15:06:00.997Z,1.00
2017-12-02T15:07:04.320Z,1.00
2017-12-02T15:08:06.889Z,1.00
2017-12-02T15:09:09.548Z,1.00
2017-12-02T15:10:13.186Z,1.00
2017-12-02T15:11:15.811Z,1.00
2017-12-02T15:12:18.398Z,1.00
2017-12-02T15:13:21.009Z,1.00
2017-12-02T15:14:24.535Z,1.00
2017-12-02T15:15:27.111Z,1.00
2017-12-02T15:16:30.676Z,1.10